Time;durP1;ratioP1;P1;durP2;ratioP2;P2;SDS_P1;SDS_P2;PMS_P1;PMS_P2;Temp;Humidity;BMP_temperature;BMP_pressure;BME280_temperature;BME280_humidity;BME280_pressure;Samples;Min_cycle;Max_cycle;Signal;HPM_P1;HPM_P2
2021/12/27 00:06:30;;;;;;;;;;;;;;;;;;;;;
2021/12/27 00:09:39;;;;;;;22.88;10.50;;;;;;;2.34;87.78;91749.00;4918097;29;20057;-92
2021/12/27 00:13:07;;;;;;;18.05;10.60;;;;;;;2.34;88.31;91769.66;4888085;29;20049;-92
2021/12/27 00:16:17;;;;;;;;;;;;;;;;;;;;;
2021/12/27 00:20:05;;;;;;;18.80;10.93;;;;;;;1.96;87.63;91722.50;4907672;29;20040;-92
2021/12/27 00:23:49;;;;;;;18.80;10.40;;;;;;;1.75;87.50;91694.03;4862569;29;20056;-92
2021/12/27 00:27:24;;;;;;;;;;;;;;;;;;;;;
2021/12/27 00:34:27;;;;;;;16.27;9.98;;;;;;;1.70;86.87;91722.41;4864428;29;20059;-93
2021/12/27 00:40:47;;;;;;;18.45;9.55;;;;;;;1.61;86.73;91711.00;4898013;29;20048;-92
2021/12/27 00:47:31;;;;;;;;;;;;;;;;;;;;;
2021/12/27 00:51:14;;;;;;;;;;;;;;;;;;;;;
2021/12/27 00:54:33;;;;;;;;;;;;;;;;;;;;;
2021/12/27 00:57:53;;;;;;;;;;;;;;;;;;;;;
2021/12/27 01:04:12;;;;;;;;;;;;;;;;;;;;;
2021/12/27 01:17:33;;;;;;;;;;;;;;;;;;;;;
2021/12/27 01:20:28;;;;;;;11.98;5.15;;;;;;;1.28;86.69;91699.97;4898987;29;20049;-92
2021/12/27 01:23:24;;;;;;;9.85;4.75;;;;;;;1.22;86.60;91685.50;4899889;29;20045;-92
2021/12/27 01:27:03;;;;;;;;;;;;;;;;;;;;;
2021/12/27 01:30:36;;;;;;;11.50;6.30;;;;;;;1.65;87.17;91745.59;4883857;29;20131;-91
2021/12/27 01:33:50;;;;;;;12.32;6.65;;;;;;;1.32;87.42;91692.53;4906483;29;20044;-91
2021/12/27 01:37:02;;;;;;;;;;;;;;;;;;;;;
2021/12/27 01:39:53;;;;;;;;;;;;;;;;;;;;;
2021/12/27 01:47:06;;;;;;;11.63;5.70;;;;;;;1.37;87.27;91685.56;4918528;29;20043;-92
2021/12/27 01:50:26;;;;;;;8.27;5.43;;;;;;;1.41;87.45;91684.06;4917503;29;20043;-92
2021/12/27 01:53:41;;;;;;;;;;;;;;;;;;;;;
2021/12/27 02:00:42;;;;;;;;;;;;;;;;;;;;;
2021/12/27 02:11:36;;;;;;;;;;;;;;;;;;;;;
2021/12/27 02:15:09;;;;;;;;;;;;;;;;;;;;;
2021/12/27 02:18:40;;;;;;;7.97;4.00;;;;;;;1.88;87.36;91685.06;4872307;29;20056;-92
2021/12/27 02:21:30;;;;;;;8.38;3.67;;;;;;;2.00;86.98;91698.53;4882318;29;20059;-91
2021/12/27 02:24:54;;;;;;;;;;;;;;;;;;;;;
2021/12/27 02:31:41;;;;;;;11.30;4.28;;;;;;;1.96;86.85;91676.84;4899090;29;20055;-91
2021/12/27 02:41:59;;;;;;;;;;;;;;;;;;;;;
2021/12/27 02:45:36;;;;;;;;;;;;;;;;;;;;;
2021/12/27 02:48:45;;;;;;;5.00;2.92;;;;;;;1.58;86.44;91649.59;4903995;29;20774;-92
2021/12/27 02:52:28;;;;;;;;;;;;;;;;;;;;;
2021/12/27 02:55:29;;;;;;;;;;;;;;;1.91;86.32;91710.38;4894543;29;20041;-92
2021/12/27 02:58:42;;;;;;;3.17;1.95;;;;;;;1.40;86.24;91648.22;4890822;29;19915;-92
2021/12/27 03:01:49;;;;;;;3.88;1.98;;;;;;;1.59;86.37;91679.50;4898857;29;20044;-92
2021/12/27 03:05:55;;;;;;;3.47;1.90;;;;;;;1.37;87.04;91653.84;4911500;29;20083;-92
2021/12/27 03:08:27;;;;;;;4.72;2.15;;;;;;;1.31;87.58;91629.09;4895596;29;20438;-91
2021/12/27 03:11:53;;;;;;;6.22;3.08;;;;;;;1.38;87.40;91635.56;4912114;29;20053;-92
2021/12/27 03:15:15;;;;;;;8.00;3.05;;;;;;;1.65;86.92;91678.53;4870908;29;20045;-92
2021/12/27 03:19:09;;;;;;;;;;;;;;;;;;;;;
2021/12/27 03:22:20;;;;;;;8.60;3.95;;;;;;;1.36;86.90;91629.88;4870647;29;20104;-92
2021/12/27 03:25:35;;;;;;;;;;;;;;;;;;;;;
2021/12/27 03:28:16;;;;;;;7.20;3.83;;;;;;;1.79;86.97;91695.09;4902714;29;20067;-91
2021/12/27 03:31:37;;;;;;;;;;;;;;;;;;;;;
2021/12/27 03:34:41;;;;;;;6.75;3.67;;;;;;;1.45;86.91;91643.06;4885954;29;20047;-92
2021/12/27 03:37:47;;;;;;;7.63;3.53;;;;;;;1.90;86.82;91703.66;4897500;29;20059;-91
2021/12/27 03:40:50;;;;;;;;;;;;;;;;;;;;;
2021/12/27 03:43:55;;;;;;;6.40;3.45;;;;;;;1.64;86.20;91644.22;4890625;29;20040;-92
2021/12/27 03:47:01;;;;;;;6.38;3.47;;;;;;;1.71;85.87;91643.94;4899421;29;20172;-92
2021/12/27 03:50:30;;;;;;;;;;;;;;;;;;;;;
2021/12/27 03:53:37;;;;;;;;;;;;;;;;;;;;;
2021/12/27 03:56:34;;;;;;;6.05;2.88;;;;;;;2.28;85.87;91706.91;4904149;29;20503;-93
2021/12/27 04:00:03;;;;;;;;;;;;;;;;;;;;;
2021/12/27 04:03:07;;;;;;;6.00;3.20;;;;;;;2.14;86.52;91685.94;4902390;29;20076;-91
2021/12/27 04:06:21;;;;;;;5.47;2.85;;;;;;;2.37;86.39;91720.09;4901531;29;20049;-91
2021/12/27 04:12:47;;;;;;;;;;;;;;;;;;;;;
2021/12/27 04:23:32;;;;;;;;;;;;;;;;;;;;;
2021/12/27 04:26:50;;;;;;;4.68;2.40;;;;;;;2.51;86.49;91682.41;4933988;28;20052;-91
2021/12/27 04:32:53;;;;;;;5.00;2.45;;;;;;;2.38;86.02;91654.47;4904865;28;20052;-92
2021/12/27 04:36:40;;;;;;;;;;;;;;;;;;;;;
2021/12/27 04:40:06;;;;;;;4.80;2.08;;;;;;;2.38;86.00;91638.97;4901327;29;20035;-91
2021/12/27 04:46:45;;;;;;;4.45;2.40;;;;;;;2.71;85.72;91682.44;4881421;29;20044;-92
2021/12/27 04:50:07;;;;;;;4.18;2.33;;;;;;;2.41;85.60;91630.72;4886592;29;20051;-91
2021/12/27 04:56:44;;;;;;;;;;;;;;;;;;;;;
2021/12/27 04:59:27;;;;;;;4.72;2.50;;;;;;;2.69;85.31;91661.22;4871363;29;20037;-92
2021/12/27 05:06:18;;;;;;;4.93;2.65;;;;;;;2.63;84.38;91633.06;4852321;29;20053;-91
2021/12/27 05:09:30;;;;;;;4.43;2.42;;;;;;;2.70;84.33;91636.16;4898973;29;20045;-92
2021/12/27 05:12:52;;;;;;;;;;;;;;;;;;;;;
2021/12/27 05:26:13;;;;;;;5.30;2.60;;;;;;;2.59;84.00;91622.47;4898718;29;20052;-91
2021/12/27 05:29:40;;;;;;;4.40;2.42;;;;;;;2.82;83.82;91657.38;4872554;29;20355;-92
2021/12/27 05:32:50;;;;;;;;;;;;;;;;;;;;;
2021/12/27 05:36:24;;;;;;;;;;;;;;;;;;;;;
2021/12/27 05:39:47;;;;;;;4.00;2.10;;;;;;;2.91;83.42;91675.72;4899105;29;20068;-92
2021/12/27 05:43:27;;;;;;;;;;;;;;;;;;;;;
2021/12/27 05:46:45;;;;;;;5.80;2.00;;;;;;;2.79;83.74;91655.31;4896185;29;20049;-92
2021/12/27 05:49:42;;;;;;;3.33;1.75;;;;;;;2.72;83.88;91647.00;4897385;29;20047;-91
2021/12/27 05:53:09;;;;;;;2.42;1.38;;;;;;;2.97;83.90;91676.50;4886327;29;20053;-90
2021/12/27 05:56:21;;;;;;;2.45;1.33;;;;;;;2.95;83.77;91676.75;4898538;29;20699;-91
2021/12/27 06:02:51;;;;;;;3.05;1.50;;;;;;;2.93;82.86;91673.66;4878178;29;20056;-91
2021/12/27 06:06:07;;;;;;;3.03;1.50;;;;;;;2.86;82.82;91667.94;4868629;29;20391;-91
2021/12/27 06:09:35;;;;;;;;;;;;;;;;;;;;;
2021/12/27 06:12:52;;;;;;;3.15;1.52;;;;;;;2.71;82.74;91640.31;4879681;29;20045;-92
2021/12/27 06:18:57;;;;;;;;;;;;;;;;;;;;;
2021/12/27 06:26:02;;;;;;;3.42;1.80;;;;;;;2.78;80.62;91640.06;4898962;29;20135;-92
2021/12/27 06:29:15;;;;;;;;;;;;;;;;;;;;;
2021/12/27 06:32:21;;;;;;;2.85;1.50;;;;;;;2.75;81.57;91635.38;4884746;29;20116;-91
2021/12/27 06:35:34;;;;;;;;;;;;;;;;;;;;;
2021/12/27 06:38:55;;;;;;;4.78;2.50;;;;;;;2.98;82.02;91667.72;4895639;29;20398;-91
2021/12/27 06:42:15;;;;;;;;;;;;;;;;;;;;;
2021/12/27 06:49:31;;;;;;;4.05;2.35;;;;;;;2.76;81.88;91636.94;4879537;29;20056;-92
2021/12/27 06:56:17;;;;;;;5.28;2.42;;;;;;;2.75;81.40;91643.13;4884065;29;20356;-93
2021/12/27 06:59:24;;;;;;;7.03;2.60;;;;;;;2.92;81.45;91657.34;4882017;29;20380;-92
2021/12/27 07:02:47;;;;;;;3.55;2.00;;;;;;;3.23;81.30;91700.53;4887739;29;20045;-92
2021/12/27 07:09:12;;;;;;;;;;;;;;;;;;;;;
2021/12/27 07:12:23;;;;;;;;;;;;;;;;;;;;;
2021/12/27 07:22:22;;;;;;;;;;;;;;;;;;;;;
2021/12/27 07:24:51;;;;;;;13.15;5.43;;;;;;;3.28;80.31;91690.19;4887822;29;20502;-84
2021/12/27 07:27:31;;;;;;;;;;;;;;;;;;;;;
2021/12/27 07:29:58;;;;;;;5.35;2.70;;;;;;;3.09;80.66;91651.16;4897778;29;20056;-85
2021/12/27 07:32:38;;;;;;;8.32;3.50;;;;;;;3.17;80.13;91668.72;4884252;29;20121;-86
2021/12/27 07:35:12;;;;;;;5.38;3.33;;;;;;;3.11;80.38;91656.84;4899990;29;20080;-87
2021/12/27 07:38:01;;;;;;;;;;;;;;;;;;;;;
2021/12/27 07:40:40;;;;;;;5.63;3.00;;;;;;;3.07;80.79;91653.22;4895650;29;20044;-85
2021/12/27 07:43:10;;;;;;;17.50;5.53;;;;;;;3.09;81.09;91656.31;4884113;29;20041;-84
2021/12/27 07:45:47;;;;;;;64.47;19.58;;;;;;;3.51;82.00;91715.53;4895490;29;20058;-85
2021/12/27 07:48:18;;;;;;;22.50;8.70;;;;;;;3.17;83.18;91657.59;4888726;29;20510;-85
2021/12/27 07:53:51;;;;;;;;;;;;;;;;;;;;;
2021/12/27 07:56:39;;;;;;;;;;;;;;;;;;;;;
2021/12/27 07:59:35;;;;;;;7.55;4.18;;;;;;;3.32;82.39;91699.75;4916219;28;20045;-93
2021/12/27 08:02:13;;;;;;;7.50;4.70;;;;;;;3.17;81.46;91673.88;4909456;28;20052;-93
2021/12/27 08:04:58;;;;;;;;;;;;;;;;;;;;;
2021/12/27 08:07:38;;;;;;;8.90;4.70;;;;;;;3.18;80.11;91669.50;4888171;29;20570;-85
2021/12/27 08:10:25;;;;;;;;;;;;;;;;;;;;;
2021/12/27 08:13:15;;;;;;;;;;;;;;;;;;;;;
2021/12/27 08:15:51;;;;;;;9.02;4.47;;;;;;;3.10;80.62;91710.34;4889379;29;20076;-86
2021/12/27 08:18:32;;;;;;;7.80;4.50;;;;;;;3.09;81.27;91708.81;4883224;29;20112;-87
2021/12/27 08:21:09;;;;;;;7.30;4.40;;;;;;;3.30;80.99;91745.03;4897527;29;20055;-87
2021/12/27 08:23:40;;;;;;;9.23;4.50;;;;;;;2.99;81.17;91685.53;4884792;29;20041;-86
2021/12/27 08:26:40;;;;;;;6.55;3.45;;;;;;;3.29;81.25;91733.91;4886073;29;20052;-86
2021/12/27 08:29:18;;;;;;;5.55;3.30;;;;;;;3.33;81.27;91723.78;4891207;29;20033;-87
2021/12/27 08:31:58;;;;;;;;;;;;;;;;;;;;;
2021/12/27 08:34:40;;;;;;;6.95;3.17;;;;;;;3.33;81.16;91716.03;4897189;29;20520;-86
2021/12/27 08:37:09;;;;;;;5.03;2.80;;;;;;;3.35;81.21;91706.22;4896240;29;20080;-88
2021/12/27 08:39:38;;;;;;;4.10;2.30;;;;;;;3.65;79.74;91735.69;4880096;29;20040;-86
2021/12/27 08:42:10;;;;;;;7.20;3.08;;;;;;;3.59;80.43;91721.97;4882400;29;20071;-86
2021/12/27 08:45:01;;;;;;;6.13;3.63;;;;;;;3.71;80.78;91744.97;4882995;29;20077;-86
2021/12/27 08:47:44;;;;;;;11.20;4.38;;;;;;;3.77;80.85;91754.28;4899622;29;20041;-86
2021/12/27 08:50:17;;;;;;;9.02;4.30;;;;;;;3.62;81.44;91725.84;4905349;29;20530;-85
2021/12/27 08:52:58;;;;;;;4.18;2.33;;;;;;;3.85;80.92;91751.19;4883022;29;20445;-86
2021/12/27 08:55:30;;;;;;;6.15;3.25;;;;;;;3.65;80.71;91714.97;4898104;29;20059;-86
2021/12/27 08:58:21;;;;;;;6.28;3.40;;;;;;;3.72;78.75;91721.44;4897784;29;20033;-86
2021/12/27 09:00:58;;;;;;;8.18;4.30;;;;;;;3.84;78.32;91747.03;4897980;29;20036;-87
2021/12/27 09:03:37;;;;;;;;;;;;;;;;;;;;;
2021/12/27 09:06:14;;;;;;;10.52;4.68;;;;;;;4.09;79.06;91782.44;4883101;29;20037;-87
2021/12/27 09:08:59;;;;;;;9.35;5.00;;;;;;;3.86;78.39;91746.78;4883403;29;20080;-86
2021/12/27 09:11:34;;;;;;;9.18;4.60;;;;;;;3.84;78.37;91739.25;4913018;29;20072;-85
2021/12/27 09:14:06;;;;;;;8.20;4.63;;;;;;;4.06;77.94;91764.06;4897106;29;20072;-86
2021/12/27 09:16:42;;;;;;;9.57;4.38;;;;;;;3.83;78.47;91722.19;4881787;29;20063;-87
2021/12/27 09:19:14;;;;;;;6.75;3.80;;;;;;;4.16;78.76;91761.44;4898961;29;20045;-88
2021/12/27 09:21:56;;;;;;;6.38;3.20;;;;;;;3.96;77.79;91724.22;4898477;29;20033;-87
2021/12/27 09:24:48;;;;;;;5.55;2.85;;;;;;;4.29;77.83;91771.25;4886001;29;20037;-86
2021/12/27 09:27:27;;;;;;;6.07;3.45;;;;;;;4.21;77.85;91750.28;4907786;29;20041;-86
2021/12/27 09:30:31;;;;;;;;;;;;;;;;;;;;;
2021/12/27 09:33:12;;;;;;;;;;;;;;;;;;;;;
2021/12/27 09:36:13;;;;;;;6.93;3.50;;;;;;;4.24;77.63;91753.13;4873102;29;20052;-86
2021/12/27 09:38:48;;;;;;;6.90;3.75;;;;;;;4.38;77.90;91758.53;4884329;29;20048;-86
2021/12/27 09:41:26;;;;;;;7.53;3.85;;;;;;;4.27;78.78;91744.81;4894027;29;20428;-86
2021/12/27 09:44:09;;;;;;;;;;;;;;;;;;;;;
2021/12/27 09:46:49;;;;;;;6.63;3.50;;;;;;;4.38;77.61;91745.56;4880059;29;20105;-85
2021/12/27 09:49:35;;;;;;;;;;;;;;;4.75;77.67;91799.59;4878867;29;20044;-86
2021/12/27 09:52:11;;;;;;;5.45;2.92;;;;;;;4.52;77.90;91756.91;4879495;29;19931;-86
2021/12/27 09:55:17;;;;;;;;;;;;;;;;;;;;;
2021/12/27 09:58:05;;;;;;;5.85;3.42;;;;;;;4.42;77.38;91741.41;4884241;29;20035;-86
2021/12/27 10:00:34;;;;;;;7.20;4.10;;;;;;;4.47;77.42;91731.00;4898141;29;20398;-86
2021/12/27 10:03:10;;;;;;;8.23;4.70;;;;;;;4.47;77.44;91725.81;4880960;29;20463;-86
2021/12/27 10:05:49;;;;;;;8.55;5.20;;;;;;;4.47;76.67;91727.66;4895606;29;20342;-86
2021/12/27 10:08:39;;;;;;;9.23;5.10;;;;;;;4.64;76.56;91745.44;4897031;29;20050;-85
2021/12/27 10:11:18;;;;;;;8.02;4.50;;;;;;;4.67;75.48;91721.59;4878388;29;20563;-87
2021/12/27 10:14:17;;;;;;;9.55;4.47;;;;;;;4.52;75.30;91723.19;4891645;29;20044;-86
2021/12/27 10:16:49;;;;;;;7.40;4.50;;;;;;;4.50;75.23;91730.50;4893843;29;20040;-86
2021/12/27 10:19:25;;;;;;;8.23;4.82;;;;;;;4.68;76.27;91765.38;4894252;29;20036;-86
2021/12/27 10:22:07;;;;;;;8.95;5.00;;;;;;;4.65;76.54;91745.19;4909146;29;20068;-85
2021/12/27 10:24:59;;;;;;;9.40;5.18;;;;;;;4.78;76.80;91757.56;4886001;29;20502;-86
2021/12/27 10:27:54;;;;;;;9.98;5.60;;;;;;;4.58;77.38;91711.00;4892519;29;20130;-88
2021/12/27 10:30:41;;;;;;;7.97;4.57;;;;;;;4.79;77.21;91730.56;4891292;29;20044;-85
2021/12/27 10:33:33;;;;;;;;;;;;;;;;;;;;;
2021/12/27 10:36:31;;;;;;;8.02;4.38;;;;;;;5.03;74.90;91758.44;4881059;29;20079;-86
2021/12/27 10:39:12;;;;;;;10.57;5.10;;;;;;;4.74;76.12;91715.06;4880662;29;20559;-86
2021/12/27 10:41:44;;;;;;;9.27;4.97;;;;;;;4.69;75.73;91696.16;4864307;29;20151;-85
2021/12/27 10:44:24;;;;;;;8.20;4.95;;;;;;;4.74;75.63;91703.91;4881145;29;20052;-86
2021/12/27 10:47:09;;;;;;;7.18;4.05;;;;;;;4.87;75.21;91718.88;4878355;29;20123;-86
2021/12/27 10:50:02;;;;;;;;;;;;;;;;;;;;;
2021/12/27 10:52:51;;;;;;;5.25;3.10;;;;;;;4.82;74.65;91695.56;4876373;29;20078;-86
2021/12/27 10:55:38;;;;;;;4.85;2.88;;;;;;;5.26;74.60;91743.25;4879918;29;20029;-86
2021/12/27 10:58:30;;;;;;;7.00;2.90;;;;;;;5.35;74.59;91752.00;4874736;29;20076;-88
2021/12/27 11:01:37;;;;;;;6.90;3.63;;;;;;;4.93;73.93;91696.25;4887015;29;20520;-86
2021/12/27 11:04:35;;;;;;;8.80;4.05;;;;;;;4.94;74.56;91695.22;4880321;29;20426;-86
2021/12/27 11:07:15;;;;;;;8.52;4.60;;;;;;;5.13;75.13;91732.44;4888607;29;20039;-86
2021/12/27 11:09:44;;;;;;;10.30;4.88;;;;;;;5.28;75.80;91764.50;4862030;29;20037;-87
2021/12/27 11:12:22;;;;;;;8.38;4.72;;;;;;;4.90;74.55;91694.22;4878375;29;20021;-86
2021/12/27 11:15:16;;;;;;;6.78;3.53;;;;;;;5.01;74.29;91703.47;4877733;29;20045;-86
2021/12/27 11:18:05;;;;;;;16.88;7.03;;;;;;;5.33;74.03;91746.31;4877491;29;20041;-86
2021/12/27 11:20:43;;;;;;;74.53;25.75;;;;;;;5.21;74.61;91718.88;4876399;29;20467;-87
2021/12/27 11:23:31;;;;;;;205.80;65.18;;;;;;;5.22;74.52;91704.88;4862128;29;20037;-88
2021/12/27 11:26:21;;;;;;;77.07;31.40;;;;;;;5.09;74.19;91674.38;4862681;29;20132;-87
2021/12/27 11:29:32;;;;;;;10.75;4.65;;;;;;;5.51;74.58;91730.06;4864684;29;20042;-86
2021/12/27 11:32:28;;;;;;;;;;;;;;;;;;;;;
2021/12/27 11:35:04;;;;;;;7.10;3.00;;;;;;;5.27;73.96;91669.53;4900836;29;20139;-86
2021/12/27 11:37:48;;;;;;;6.38;2.60;;;;;;;5.30;72.98;91650.84;4915725;29;20089;-92
2021/12/27 11:44:01;;;;;;;13.23;6.60;;;;;;;5.58;74.45;91683.81;4917834;29;20058;-86
2021/12/27 11:50:32;;;;;;;13.13;7.68;;;;;;;5.07;74.86;91634.19;4877572;29;20059;-86
2021/12/27 11:53:52;;;;;;;15.77;8.20;;;;;;;4.87;75.85;91624.75;4894949;29;20483;-85
2021/12/27 11:56:42;;;;;;;15.30;9.45;;;;;;;5.01;76.30;91682.72;4898829;29;20102;-86
2021/12/27 11:59:32;;;;;;;12.48;7.35;;;;;;;4.27;77.28;91628.22;4911719;29;20036;-86
2021/12/27 12:02:19;;;;;;;13.05;6.28;;;;;;;4.31;76.37;91655.16;4898081;29;20052;-86
2021/12/27 12:04:53;;;;;;;10.98;6.10;;;;;;;4.02;76.60;91620.59;4877839;29;20582;-85
2021/12/27 12:07:37;;;;;;;12.23;6.13;;;;;;;4.50;76.19;91677.88;4896631;29;20139;-86
2021/12/27 12:10:30;;;;;;;9.32;5.68;;;;;;;4.02;76.79;91615.44;4884129;29;20089;-86
2021/12/27 12:13:49;;;;;;;10.65;5.97;;;;;;;4.03;77.21;91616.97;4909244;29;20060;-86
2021/12/27 12:19:57;;;;;;;13.85;6.78;;;;;;;3.97;77.91;91598.09;4882408;29;20517;-87
2021/12/27 12:22:38;;;;;;;12.80;6.55;;;;;;;4.45;77.39;91659.75;4887991;29;20037;-89
2021/12/27 12:25:24;;;;;;;14.38;7.75;;;;;;;3.95;78.04;91600.94;4883595;29;20093;-87
2021/12/27 12:27:57;;;;;;;12.13;6.53;;;;;;;4.31;78.33;91655.16;4878424;29;20044;-86
2021/12/27 12:30:32;;;;;;;11.63;6.05;;;;;;;3.93;78.54;91597.84;4878223;29;20543;-87
2021/12/27 12:33:17;;;;;;;12.55;6.43;;;;;;;3.81;78.78;91605.16;4872617;29;20040;-87
2021/12/27 12:36:19;;;;;;;11.32;6.80;;;;;;;4.17;79.00;91660.16;4868868;29;20097;-88
2021/12/27 12:43:18;;;;;;;14.60;8.43;;;;;;;3.70;80.82;91588.91;4787529;29;20066;-88
2021/12/27 12:51:09;;;;;;;;;;;;;;;;;;;;;
2021/12/27 12:54:38;;;;;;;;;;;;;;;;;;;;;
2021/12/27 13:05:11;;;;;;;13.65;8.32;;;;;;;3.88;81.93;91659.25;4885918;29;20041;-87
2021/12/27 13:11:58;;;;;;;15.95;9.48;;;;;;;3.36;82.53;91614.63;4824610;29;20082;-88
2021/12/27 13:14:51;;;;;;;15.15;9.18;;;;;;;3.33;82.74;91615.16;4840546;29;20067;-86
2021/12/27 13:17:44;;;;;;;17.45;10.23;;;;;;;3.29;83.06;91608.97;4881789;29;20368;-89
2021/12/27 13:20:38;;;;;;;24.20;12.20;;;;;;;3.27;82.22;91598.09;4869992;29;20045;-87
2021/12/27 13:27:09;;;;;;;14.52;7.85;;;;;;;3.18;82.28;91617.78;4883415;29;20060;-86
2021/12/27 13:29:39;;;;;;;15.73;7.88;;;;;;;3.20;82.17;91607.94;4876933;29;20041;-87
2021/12/27 13:32:49;;;;;;;14.98;8.75;;;;;;;3.23;81.79;91612.59;4876548;29;20052;-87
2021/12/27 13:35:53;;;;;;;;;;;;;;;;;;;;;
2021/12/27 13:39:24;;;;;;;16.77;9.27;;;;;;;3.67;83.11;91685.22;4890687;29;20068;-87
2021/12/27 13:42:04;;;;;;;13.75;7.85;;;;;;;3.34;83.54;91622.66;4887826;29;20057;-86
2021/12/27 13:45:39;;;;;;;;;;;;;;;;;;;;;
2021/12/27 13:52:31;;;;;;;13.00;7.75;;;;;;;3.53;85.12;91617.69;4899817;29;20490;-91
2021/12/27 13:59:48;;;;;;;13.63;6.05;;;;;;;3.92;84.64;91668.81;4861983;29;20093;-91
2021/12/27 14:06:15;;;;;;;14.63;8.45;;;;;;;3.81;86.39;91656.19;4862410;29;20082;-91
2021/12/27 14:16:41;;;;;;;14.18;7.28;;;;;;;3.77;88.24;91661.09;4841980;29;20045;-91
2021/12/27 14:23:30;;;;;;;11.70;7.03;;;;;;;3.78;88.31;91660.03;4853315;29;20048;-91
2021/12/27 14:30:22;;;;;;;12.93;7.72;;;;;;;3.78;88.17;91670.41;4899880;29;20098;-91
2021/12/27 14:32:55;;;;;;;16.30;8.68;;;;;;;3.80;87.72;91663.16;4899254;29;20068;-90
2021/12/27 14:35:44;;;;;;;13.05;7.75;;;;;;;3.80;87.88;91663.16;4898636;29;20052;-92
2021/12/27 14:38:12;;;;;;;11.93;6.95;;;;;;;3.83;88.11;91660.06;4897780;29;20092;-91
2021/12/27 14:40:53;;;;;;;;;;;;;;;;;;;;;
2021/12/27 14:47:24;;;;;;;;;;;;;;;;;;;;;
2021/12/27 14:50:06;;;;;;;13.52;8.05;;;;;;;3.43;88.13;91599.59;4863332;29;20483;-91
2021/12/27 14:53:11;;;;;;;;;;;;;;;;;;;;;
2021/12/27 15:00:43;;;;;;;12.27;6.28;;;;;;;3.80;90.25;91654.63;4879027;29;20051;-91
2021/12/27 15:07:35;;;;;;;11.93;6.82;;;;;;;3.47;91.24;91629.09;4847354;29;19961;-91
2021/12/27 15:10:51;;;;;;;;;;;;;;;;;;;;;
2021/12/27 15:13:33;;;;;;;11.85;7.10;;;;;;;3.31;91.49;91612.03;4905859;29;20024;-93
2021/12/27 15:16:25;;;;;;;15.23;7.63;;;;;;;3.34;91.08;91632.22;4906486;29;20069;-92
2021/12/27 15:19:14;;;;;;;35.63;17.55;;;;;;;3.27;91.15;91616.22;4905414;29;20075;-86
2021/12/27 15:24:42;;;;;;;52.05;24.35;;;;;;;3.32;92.05;91634.31;4919314;29;20045;-87
2021/12/27 15:27:41;;;;;;;26.73;13.10;;;;;;;3.21;92.11;91622.44;4901716;29;20079;-86
2021/12/27 15:30:37;;;;;;;18.60;9.18;;;;;;;3.34;91.91;91637.41;4890413;29;20045;-86
2021/12/27 15:33:08;;;;;;;15.70;8.25;;;;;;;3.20;91.70;91616.47;4879599;29;20033;-86
2021/12/27 15:35:48;;;;;;;14.02;8.57;;;;;;;3.47;92.22;91664.56;4859477;29;20136;-85
2021/12/27 15:38:40;;;;;;;13.20;7.63;;;;;;;3.36;92.32;91650.84;4858596;29;20033;-85
2021/12/27 15:41:31;;;;;;;13.70;7.37;;;;;;;3.50;91.90;91680.31;4895565;29;20039;-85
2021/12/27 15:44:08;;;;;;;12.68;7.38;;;;;;;3.28;92.76;91651.38;4861830;29;20308;-87
2021/12/27 15:46:46;;;;;;;;;;;;;;;;;;;;;
2021/12/27 15:49:26;;;;;;;10.93;6.80;;;;;;;3.41;92.78;91676.72;4859793;29;20476;-85
2021/12/27 15:52:08;;;;;;;11.27;6.68;;;;;;;3.03;92.77;91627.09;4848961;29;20129;-85
2021/12/27 15:55:04;;;;;;;;;;;;;;;;;;;;;
2021/12/27 15:57:48;;;;;;;10.88;6.82;;;;;;;3.23;92.70;91649.56;4868931;29;20051;-87
2021/12/27 16:00:26;;;;;;;12.93;6.72;;;;;;;3.26;92.62;91651.63;4848513;29;20037;-85
2021/12/27 16:03:03;;;;;;;11.23;6.40;;;;;;;3.32;92.70;91662.75;4863831;29;20535;-85
2021/12/27 16:05:33;;;;;;;12.23;6.28;;;;;;;3.38;92.59;91677.25;4846982;29;20129;-87
2021/12/27 16:08:18;;;;;;;11.45;6.50;;;;;;;3.24;92.94;91648.56;4861960;29;20077;-86
2021/12/27 16:10:59;;;;;;;;;;;;;;;;;;;;;
2021/12/27 16:13:56;;;;;;;;;;;;;;;;;;;;;
2021/12/27 16:16:48;;;;;;;;;;;;;;;;;;;;;
2021/12/27 16:19:22;;;;;;;14.60;7.40;;;;;;;3.00;93.04;91626.88;4858082;29;20037;-87
2021/12/27 16:22:15;;;;;;;11.15;5.80;;;;;;;3.26;92.80;91661.97;4859873;29;20044;-86
2021/12/27 16:25:17;;;;;;;55.78;21.85;;;;;;;2.96;92.88;91624.00;4869510;29;20121;-88
2021/12/27 16:28:16;;;;;;;22.70;10.88;;;;;;;2.97;93.16;91622.97;4864272;29;20391;-86
2021/12/27 16:31:01;;;;;;;21.13;10.60;;;;;;;3.07;93.45;91635.13;4857684;29;20391;-87
2021/12/27 16:33:56;;;;;;;23.70;11.95;;;;;;;2.97;93.08;91617.78;4865719;29;20040;-87
2021/12/27 16:36:39;;;;;;;;;;;;;;;;;;;;;
2021/12/27 16:39:33;;;;;;;;;;;;;;;;;;;;;
2021/12/27 16:42:15;;;;;;;16.55;9.73;;;;;;;2.95;93.75;91632.81;4870158;29;20446;-87
2021/12/27 16:44:46;;;;;;;15.35;8.68;;;;;;;2.79;93.15;91620.91;4866765;29;20660;-86
2021/12/27 16:47:17;;;;;;;15.88;9.38;;;;;;;2.90;93.14;91632.78;4895265;29;20036;-87
2021/12/27 16:49:51;;;;;;;16.17;9.45;;;;;;;3.17;93.23;91680.88;4899929;29;20092;-87
2021/12/27 16:52:34;;;;;;;15.40;8.85;;;;;;;3.02;92.96;91654.00;4892096;29;20041;-86
2021/12/27 16:55:00;;;;;;;18.00;9.70;;;;;;;2.79;92.70;91620.91;4850856;29;20124;-86
2021/12/27 16:57:52;;;;;;;15.63;9.48;;;;;;;2.78;92.82;91622.72;4866887;29;20037;-86
2021/12/27 17:00:52;;;;;;;17.52;9.70;;;;;;;2.95;92.73;91645.75;4887828;29;20044;-86
2021/12/27 17:03:31;;;;;;;16.05;8.63;;;;;;;3.05;92.54;91661.22;4884800;29;20514;-88
2021/12/27 17:07:12;;;;;;;;;;;;;;;;;;;;;
2021/12/27 17:10:38;;;;;;;;;;;;;;;;;;;;;
2021/12/27 17:13:44;;;;;;;27.55;11.00;;;;;;;2.87;93.67;91635.91;4889293;29;20040;-87
2021/12/27 17:16:38;;;;;;;19.30;9.05;;;;;;;2.90;93.78;91638.75;4877486;29;20059;-86
2021/12/27 17:22:56;;;;;;;10.65;6.32;;;;;;;2.75;93.79;91633.59;4883570;29;20048;-87
2021/12/27 17:25:36;;;;;;;11.88;6.88;;;;;;;2.98;94.12;91671.06;4865614;29;20048;-88
2021/12/27 17:28:46;;;;;;;10.60;6.00;;;;;;;2.79;93.79;91639.00;4872132;29;20061;-87
2021/12/27 17:36:37;;;;;;;;;;;;;;;;;;;;;
2021/12/27 17:39:38;;;;;;;;;;;;;;;;;;;;;
2021/12/27 17:42:42;;;;;;;7.75;4.28;;;;;;;2.84;94.00;91657.88;4888100;29;20056;-89
2021/12/27 17:45:27;;;;;;;;;;;;;;;;;;;;;
2021/12/27 17:48:08;;;;;;;9.30;5.22;;;;;;;2.82;94.09;91654.00;4895280;29;20500;-88
2021/12/27 17:51:03;;;;;;;9.35;5.00;;;;;;;2.82;94.48;91661.78;4877783;29;20044;-89
2021/12/27 17:54:04;;;;;;;28.75;13.52;;;;;;;3.03;94.21;91689.16;4898186;29;20490;-87
2021/12/27 17:57:15;;;;;;;48.65;20.42;;;;;;;3.06;94.12;91701.59;4874118;29;20079;-87
2021/12/27 18:00:09;;;;;;;15.32;7.95;;;;;;;2.76;94.07;91662.78;4869619;29;20385;-87
2021/12/27 18:02:47;;;;;;;8.77;4.68;;;;;;;2.77;94.27;91659.16;4857489;29;20037;-88
2021/12/27 18:50:47;;;;;;;42.30;19.60;;;;;;;2.79;94.00;91704.41;4901772;28;20055;-93
2021/12/27 18:53:13;;;;;;;16.75;7.80;;;;;;;3.19;94.29;91756.41;4893056;29;20082;-75
2021/12/27 18:55:40;;;;;;;24.92;11.18;;;;;;;3.18;94.31;91760.03;4878219;29;20088;-74
2021/12/27 18:58:07;;;;;;;12.70;6.50;;;;;;;3.15;94.49;91757.94;4880004;29;20419;-74
2021/12/27 19:00:37;;;;;;;15.90;6.93;;;;;;;3.15;94.85;91774.22;4896397;29;20032;-75
2021/12/27 19:03:05;;;;;;;17.42;6.85;;;;;;;3.17;94.51;91774.00;4876255;29;20033;-74
2021/12/27 19:05:32;;;;;;;18.65;8.63;;;;;;;3.16;94.50;91775.03;4861058;29;20033;-75
2021/12/27 19:07:58;;;;;;;17.80;7.07;;;;;;;3.20;94.36;91781.22;4860551;29;20518;-75
2021/12/27 19:10:23;;;;;;;12.65;6.80;;;;;;;3.20;94.12;91771.69;4861139;29;20025;-74
2021/12/27 19:12:49;;;;;;;7.13;4.28;;;;;;;3.19;94.17;91779.69;4860771;29;20555;-74
2021/12/27 19:15:16;;;;;;;10.25;4.45;;;;;;;3.19;94.15;91779.69;4877093;29;20033;-74
2021/12/27 19:17:42;;;;;;;7.63;4.00;;;;;;;3.17;94.63;91781.75;4877975;29;20115;-76
2021/12/27 19:20:09;;;;;;;6.50;3.67;;;;;;;3.17;94.50;91785.09;4861705;29;20547;-76
2021/12/27 19:22:36;;;;;;;8.60;4.63;;;;;;;3.12;94.86;91775.53;4885750;29;20037;-76
2021/12/27 19:25:03;;;;;;;12.70;4.60;;;;;;;3.13;94.62;91777.09;4876148;29;20032;-75
2021/12/27 19:27:28;;;;;;;12.20;6.43;;;;;;;3.15;94.68;91778.63;4879384;29;20041;-75
2021/12/27 19:29:54;;;;;;;19.27;7.47;;;;;;;3.16;94.66;91785.38;4879830;29;20085;-75
2021/12/27 19:32:20;;;;;;;19.33;8.93;;;;;;;3.15;94.70;91781.22;4896340;29;20618;-75
2021/12/27 19:34:45;;;;;;;13.43;7.45;;;;;;;3.18;94.59;91780.72;4864047;29;20020;-76
2021/12/27 19:37:11;;;;;;;10.85;6.07;;;;;;;3.21;94.74;91772.44;4861087;29;20055;-75
2021/12/27 19:39:37;;;;;;;12.15;5.82;;;;;;;3.17;94.60;91766.22;4861148;29;20069;-75
2021/12/27 19:42:03;;;;;;;12.63;6.28;;;;;;;3.18;94.67;91775.56;4860726;29;20041;-75
2021/12/27 19:44:31;;;;;;;8.85;5.10;;;;;;;3.18;94.81;91765.97;4860668;29;20556;-75
2021/12/27 19:46:58;;;;;;;8.75;4.55;;;;;;;3.15;94.64;91758.72;4877294;29;20454;-75
2021/12/27 19:49:25;;;;;;;9.77;5.18;;;;;;;3.16;95.00;91759.50;4860896;29;20039;-75
2021/12/27 19:51:50;;;;;;;9.50;4.93;;;;;;;3.17;94.89;91753.28;4883589;29;20542;-75
2021/12/27 19:54:16;;;;;;;6.15;3.45;;;;;;;3.16;94.75;91755.13;4876307;29;20075;-75